Time;durP1;ratioP1;P1;durP2;ratioP2;P2;SDS_P1;SDS_P2;PMS_P1;PMS_P2;Temp;Humidity;BMP_temperature;BMP_pressure;BME280_temperature;BME280_humidity;BME280_pressure;Samples;Min_cycle;Max_cycle;Signal;HPM_P1;HPM_P2
2022/10/20 00:01:25;;;;;;;2.00;1.90;;;18.60;70.10;19.70;101010.00;;;;5089095;28;20661;-50
2022/10/20 00:03:50;;;;;;;1.87;1.77;;;18.60;70.10;19.70;101012.00;;;;5088987;28;20214;-51
2022/10/20 00:06:22;;;;;;;2.00;1.90;;;18.60;70.20;19.70;101015.00;;;;5089089;28;20176;-50
2022/10/20 00:08:48;;;;;;;1.90;1.80;;;18.60;70.10;19.70;100999.00;;;;5088899;28;20723;-50
2022/10/20 00:11:16;;;;;;;2.00;1.80;;;18.60;70.10;19.70;101001.00;;;;5088813;28;20180;-51
2022/10/20 00:13:44;;;;;;;2.10;1.90;;;18.60;70.10;19.70;100994.00;;;;5087224;28;20747;-49
2022/10/20 00:16:11;;;;;;;2.10;1.90;;;18.50;70.00;19.60;100973.00;;;;5091827;28;20268;-48
2022/10/20 00:18:36;;;;;;;1.97;1.87;;;18.60;70.20;19.60;100968.00;;;;5089888;28;20199;-50
2022/10/20 00:21:12;;;;;;;1.93;1.83;;;18.50;70.10;19.70;100961.00;;;;5093335;28;20162;-50
2022/10/20 00:23:38;;;;;;;1.83;1.73;;;18.50;70.00;19.60;100962.00;;;;5092752;28;20164;-49
2022/10/20 00:26:15;;;;;;;2.47;1.93;;;18.50;70.00;19.60;100953.00;;;;5091170;28;20675;-51
2022/10/20 00:28:42;;;;;;;1.97;1.87;;;18.50;70.00;19.60;100943.00;;;;5088323;28;20237;-51
2022/10/20 00:31:07;;;;;;;2.20;2.00;;;18.50;70.00;19.60;100929.00;;;;5088286;28;20172;-51
2022/10/20 00:33:33;;;;;;;2.00;1.90;;;18.50;70.00;19.60;100929.00;;;;5087720;28;20169;-51
2022/10/20 00:36:04;;;;;;;2.10;1.90;;;18.50;70.80;19.60;100933.00;;;;5088142;28;20195;-49
2022/10/20 00:38:29;;;;;;;1.80;1.70;;;18.50;70.80;19.60;100929.00;;;;5088347;28;20200;-50
2022/10/20 00:40:55;;;;;;;2.20;2.00;;;18.50;70.10;19.60;100933.00;;;;5088319;28;20172;-50
2022/10/20 00:43:21;;;;;;;1.90;1.80;;;18.50;70.00;19.60;100919.00;;;;5086759;28;20180;-50
2022/10/20 00:45:53;;;;;;;2.10;1.90;;;18.50;70.00;19.50;100919.00;;;;5087968;28;20180;-49
2022/10/20 00:48:22;;;;;;;1.80;1.70;;;18.50;70.00;19.50;100931.00;;;;5087859;28;20195;-51
2022/10/20 00:50:49;;;;;;;1.97;1.87;;;18.40;70.00;19.50;100934.00;;;;5092085;28;20200;-50
2022/10/20 00:53:16;;;;;;;1.73;1.63;;;18.50;70.00;19.50;100918.00;;;;5090516;28;20176;-50
2022/10/20 00:55:42;;;;;;;2.10;1.90;;;18.40;69.90;19.50;100918.00;;;;5090676;28;20226;-50
2022/10/20 00:58:08;;;;;;;2.00;1.90;;;18.40;70.00;19.50;100918.00;;;;5092011;28;20203;-51
2022/10/20 01:00:33;;;;;;;1.93;1.77;;;18.40;69.90;19.50;100914.00;;;;5092706;28;20343;-50
2022/10/20 01:03:00;;;;;;;2.17;1.97;;;18.40;70.00;19.50;100929.00;;;;5090741;28;20218;-49
2022/10/20 01:05:26;;;;;;;1.90;1.80;;;18.40;69.80;19.50;100916.00;;;;5090304;28;20298;-50
2022/10/20 01:07:52;;;;;;;1.93;1.80;;;18.40;69.90;19.50;100922.00;;;;5091749;28;20268;-49
2022/10/20 01:10:18;;;;;;;1.90;1.80;;;18.40;69.90;19.50;100908.00;;;;5091854;28;20713;-51
2022/10/20 01:12:55;;;;;;;2.17;1.97;;;18.40;69.80;19.50;100901.00;;;;5094034;28;20198;-49
2022/10/20 01:15:45;;;;;;;1.90;1.80;;;18.40;69.80;19.40;100895.00;;;;5090965;28;20185;-50
2022/10/20 01:18:31;;;;;;;1.97;1.87;;;18.30;69.80;19.40;100886.00;;;;5090374;28;20292;-51
2022/10/20 01:21:07;;;;;;;2.10;1.90;;;18.30;69.80;19.40;100879.00;;;;5090216;28;20249;-51
2022/10/20 01:24:10;;;;;;;2.40;1.80;;;18.30;69.80;19.40;100875.00;;;;5089857;28;20172;-51
2022/10/20 01:27:12;;;;;;;2.00;1.90;;;18.30;69.80;19.40;100876.00;;;;5091695;28;20184;-50
2022/10/20 01:30:10;;;;;;;2.57;2.00;;;18.30;69.70;19.40;100876.00;;;;5091515;28;20212;-49
2022/10/20 01:32:56;;;;;;;2.10;1.90;;;18.30;69.80;19.30;100864.00;;;;5090432;28;20259;-50
2022/10/20 01:35:31;;;;;;;2.00;1.90;;;18.30;69.80;19.30;100872.00;;;;5089605;28;20787;-48
2022/10/20 01:38:28;;;;;;;2.03;1.90;;;18.30;69.80;19.30;100861.00;;;;5091112;28;20196;-49
2022/10/20 01:41:08;;;;;;;1.90;1.80;;;18.20;69.70;19.30;100829.00;;;;5091530;28;20205;-50
2022/10/20 01:43:35;;;;;;;2.13;1.93;;;18.30;69.80;19.30;100867.00;;;;5089456;28;20716;-49
2022/10/20 01:46:01;;;;;;;1.83;1.73;;;18.30;69.80;19.30;100870.00;;;;5073053;28;20157;-51
2022/10/20 01:48:31;;;;;;;2.00;1.90;;;18.30;69.70;19.30;100872.00;;;;5090080;28;20700;-52
2022/10/20 01:50:57;;;;;;;1.90;1.80;;;18.20;69.70;19.20;100872.00;;;;5089653;28;20168;-51
2022/10/20 01:53:23;;;;;;;1.90;1.80;;;18.20;69.70;19.30;100868.00;;;;5089328;28;20164;-49
2022/10/20 01:55:51;;;;;;;1.73;1.63;;;18.20;69.70;19.30;100861.00;;;;5092612;28;20528;-49
2022/10/20 01:58:46;;;;;;;1.80;1.70;;;18.20;69.70;19.30;100857.00;;;;5091757;28;20193;-50
2022/10/20 02:01:50;;;;;;;1.90;1.80;;;18.20;69.70;19.20;100831.00;;;;5088552;28;20168;-49
2022/10/20 02:04:16;;;;;;;2.30;2.10;;;18.20;69.70;19.20;100834.00;;;;5075537;28;20539;-50
2022/10/20 02:06:54;;;;;;;2.63;1.90;;;18.20;69.70;19.20;100816.00;;;;5089140;28;20162;-50
2022/10/20 02:09:38;;;;;;;1.90;1.80;;;18.20;69.70;19.20;100823.00;;;;5089466;28;20190;-50
2022/10/20 02:12:10;;;;;;;2.10;1.90;;;18.20;69.60;19.20;100817.00;;;;5089496;28;20161;-49
2022/10/20 02:14:36;;;;;;;2.00;1.90;;;18.20;69.70;19.20;100798.00;;;;5089018;28;20619;-49
2022/10/20 02:17:07;;;;;;;2.00;1.90;;;18.10;69.50;19.20;100808.00;;;;5088850;28;20271;-49
2022/10/20 02:19:36;;;;;;;2.03;1.93;;;18.10;69.50;19.20;100807.00;;;;5088939;28;20184;-51
2022/10/20 02:22:02;;;;;;;2.20;2.00;;;18.10;69.50;19.20;100797.00;;;;5089080;28;20242;-50
2022/10/20 02:24:31;;;;;;;2.00;1.90;;;18.10;69.50;19.20;100788.00;;;;5088670;28;20173;-50
2022/10/20 02:26:57;;;;;;;2.17;2.00;;;18.10;69.60;19.20;100803.00;;;;5089078;28;20173;-50
2022/10/20 02:29:33;;;;;;;2.23;1.90;;;18.10;69.70;19.20;100802.00;;;;5088990;28;20208;-50
2022/10/20 02:31:58;;;;;;;2.10;2.00;;;18.10;69.60;19.20;100799.00;;;;5089082;28;20694;-49
2022/10/20 02:34:27;;;;;;;1.90;1.80;;;18.10;69.60;19.20;100800.00;;;;5088771;28;20177;-51
2022/10/20 02:36:57;;;;;;;3.77;2.17;;;18.10;69.50;19.10;100782.00;;;;5089884;28;20272;-49
2022/10/20 02:39:23;;;;;;;3.97;2.67;;;18.10;70.00;19.10;100789.00;;;;5090916;28;20284;-51
2022/10/20 02:41:50;;;;;;;3.77;2.83;;;18.00;69.40;19.10;100790.00;;;;5092710;28;20218;-49
2022/10/20 02:44:16;;;;;;;3.33;2.77;;;18.00;68.90;19.10;100782.00;;;;5089741;28;20654;-51
2022/10/20 02:46:42;;;;;;;3.50;3.20;;;18.00;68.70;19.00;100775.00;;;;5089906;28;20202;-50
2022/10/20 02:49:08;;;;;;;3.60;3.30;;;17.90;68.40;19.00;100773.00;;;;5090013;28;20189;-50
2022/10/20 02:51:33;;;;;;;4.43;3.73;;;17.90;68.40;19.00;100781.00;;;;5089898;28;20180;-50
2022/10/20 02:53:59;;;;;;;4.90;3.70;;;17.90;67.90;19.00;100795.00;;;;5092675;28;20196;-50
2022/10/20 02:56:25;;;;;;;3.90;3.60;;;17.90;67.90;18.90;100780.00;;;;5092666;28;20195;-50
2022/10/20 02:58:51;;;;;;;4.67;3.53;;;17.80;67.40;18.90;100789.00;;;;5090239;28;20263;-50
2022/10/20 03:01:16;;;;;;;3.90;3.53;;;17.80;67.20;18.90;100789.00;;;;5089649;28;20181;-51
2022/10/20 03:03:42;;;;;;;4.17;3.80;;;17.80;67.10;18.90;100779.00;;;;5089080;28;20176;-50
2022/10/20 03:06:13;;;;;;;4.93;3.70;;;17.80;67.00;18.90;100765.00;;;;5089300;28;20176;-51
2022/10/20 03:08:39;;;;;;;3.90;3.50;;;17.80;67.10;18.90;100756.00;;;;5088035;28;20193;-50
2022/10/20 03:11:05;;;;;;;3.90;3.60;;;17.70;66.40;18.60;100754.00;;;;5089811;28;20202;-51
2022/10/20 03:13:31;;;;;;;4.57;3.73;;;17.80;66.70;18.80;100761.00;;;;5089566;28;20227;-50
2022/10/20 03:15:57;;;;;;;4.60;3.77;;;17.80;66.60;18.80;100748.00;;;;5089497;28;20345;-50
2022/10/20 03:18:22;;;;;;;4.27;3.47;;;17.70;66.10;18.80;100746.00;;;;5089683;28;20656;-49
2022/10/20 03:20:52;;;;;;;4.30;3.80;;;17.70;66.00;18.80;100750.00;;;;5090033;28;20178;-50
2022/10/20 03:23:17;;;;;;;4.70;3.57;;;17.60;65.40;18.80;100753.00;;;;5089506;28;20270;-50
2022/10/20 03:25:43;;;;;;;7.37;3.67;;;17.60;65.80;18.80;100756.00;;;;5088008;28;20255;-50
2022/10/20 03:28:09;;;;;;;4.90;3.70;;;17.60;65.80;18.70;100756.00;;;;5089014;28;20214;-50
2022/10/20 03:30:35;;;;;;;4.70;3.73;;;17.70;65.80;18.70;100757.00;;;;5087671;28;20211;-50
2022/10/20 03:33:00;;;;;;;4.47;3.30;;;17.70;66.00;18.70;100757.00;;;;5088351;28;20661;-50
2022/10/20 03:35:26;;;;;;;3.57;3.27;;;17.60;66.10;18.70;100755.00;;;;5088268;28;20173;-50
2022/10/20 03:37:52;;;;;;;4.27;3.40;;;17.60;66.20;18.70;100743.00;;;;5092433;28;20205;-50
2022/10/20 03:40:17;;;;;;;4.77;3.33;;;17.70;66.30;18.70;100742.00;;;;5088875;28;20223;-50
2022/10/20 03:42:43;;;;;;;5.67;2.97;;;17.70;66.40;18.70;100741.00;;;;5087465;28;20672;-49
2022/10/20 03:45:09;;;;;;;4.00;3.10;;;17.70;66.50;18.70;100758.00;;;;5088213;28;20263;-49
2022/10/20 03:47:35;;;;;;;4.17;2.97;;;17.70;66.60;18.70;100738.00;;;;5088593;28;20665;-50
2022/10/20 03:50:01;;;;;;;5.20;3.27;;;17.70;66.60;18.70;100741.00;;;;5088315;28;20177;-50
2022/10/20 03:52:26;;;;;;;4.40;2.90;;;17.70;66.70;18.80;100734.00;;;;5089674;28;20634;-50
2022/10/20 03:54:52;;;;;;;4.67;2.90;;;17.70;66.80;18.70;100733.00;;;;5089349;28;20172;-50
2022/10/20 03:57:19;;;;;;;4.23;3.07;;;17.70;66.80;18.80;100737.00;;;;5089513;28;20730;-50
2022/10/20 03:59:45;;;;;;;4.17;3.17;;;17.70;67.00;18.70;100730.00;;;;5088334;28;20193;-51
2022/10/20 04:02:42;;;;;;;5.93;3.17;;;17.70;66.90;18.70;100738.00;;;;5089422;28;20252;-51
2022/10/20 04:05:13;;;;;;;4.17;3.07;;;17.70;66.90;18.70;100727.00;;;;5088258;28;20237;-52
2022/10/20 04:07:39;;;;;;;3.50;3.10;;;17.70;67.00;18.70;100721.00;;;;5089380;28;20165;-50
2022/10/20 04:10:05;;;;;;;4.47;2.90;;;17.70;67.00;18.70;100708.00;;;;5089300;28;20172;-50
2022/10/20 04:12:31;;;;;;;3.93;2.87;;;17.70;66.90;18.70;100696.00;;;;5089096;28;20256;-50
2022/10/20 04:14:57;;;;;;;4.00;3.30;;;17.60;66.90;18.70;100697.00;;;;5088741;28;20189;-51
2022/10/20 04:17:22;;;;;;;5.27;3.10;;;17.60;67.00;18.70;100699.00;;;;5089338;28;20199;-51
2022/10/20 04:19:48;;;;;;;4.03;2.87;;;17.60;67.10;18.70;100706.00;;;;5089130;28;20660;-51
2022/10/20 04:22:14;;;;;;;4.00;2.83;;;17.60;67.10;18.70;100714.00;;;;5089224;28;20231;-51
2022/10/20 04:24:40;;;;;;;4.83;3.00;;;17.70;67.10;18.70;100718.00;;;;5088482;28;20169;-51
2022/10/20 04:27:06;;;;;;;3.53;2.97;;;17.60;67.10;18.70;100717.00;;;;5089001;28;20187;-51
2022/10/20 04:29:32;;;;;;;3.70;3.03;;;17.60;67.20;18.70;100714.00;;;;5088978;28;20206;-50
2022/10/20 04:31:57;;;;;;;3.70;3.00;;;17.60;67.20;18.70;100689.00;;;;5088672;28;20644;-50
2022/10/20 04:34:23;;;;;;;3.23;2.70;;;17.60;67.20;18.70;100677.00;;;;5088550;28;20201;-50
2022/10/20 04:36:49;;;;;;;3.20;2.90;;;17.60;67.30;18.70;100671.00;;;;5088368;28;20289;-50
2022/10/20 04:39:14;;;;;;;3.30;3.00;;;17.60;67.30;18.70;100670.00;;;;5087696;28;20339;-50
2022/10/20 04:41:40;;;;;;;3.97;2.87;;;17.60;67.30;18.60;100663.00;;;;5089076;28;20190;-52
2022/10/20 04:44:06;;;;;;;8.00;3.13;;;17.60;67.40;18.60;100664.00;;;;5089012;28;20176;-50
2022/10/20 04:46:32;;;;;;;8.87;2.90;;;17.60;67.50;18.60;100664.00;;;;5093009;28;20184;-50
2022/10/20 04:48:57;;;;;;;8.93;3.13;;;17.60;67.50;18.60;100653.00;;;;5093042;28;20196;-50
2022/10/20 04:51:23;;;;;;;5.53;2.70;;;17.60;67.60;18.60;100657.00;;;;5093899;28;20181;-49
2022/10/20 04:53:49;;;;;;;6.70;3.03;;;17.60;67.60;18.60;100661.00;;;;5092146;28;20236;-51
2022/10/20 04:56:18;;;;;;;3.67;2.87;;;17.60;67.60;18.60;100661.00;;;;5091047;28;20215;-50
2022/10/20 04:58:55;;;;;;;6.30;3.10;;;17.60;67.60;18.60;100643.00;;;;5089296;28;20241;-50
2022/10/20 05:01:22;;;;;;;5.97;2.80;;;17.50;67.60;18.60;100639.00;;;;5088800;28;20216;-51
2022/10/20 05:03:48;;;;;;;5.83;2.80;;;17.50;67.60;18.60;100623.00;;;;5088692;28;20771;-50
2022/10/20 05:06:40;;;;;;;6.77;3.13;;;17.60;67.80;18.60;100639.00;;;;5087507;28;20191;-51
2022/10/20 05:09:06;;;;;;;3.20;2.90;;;17.60;67.90;18.60;100627.00;;;;5069406;28;20216;-51
2022/10/20 05:11:35;;;;;;;3.10;2.80;;;17.50;67.80;18.60;100627.00;;;;5088874;28;20176;-51
2022/10/20 05:14:01;;;;;;;3.20;2.80;;;17.60;68.00;18.60;100629.00;;;;5088447;28;20254;-51
2022/10/20 05:16:26;;;;;;;2.80;2.60;;;17.50;67.90;18.60;100629.00;;;;5088825;28;20338;-53
2022/10/20 05:18:52;;;;;;;4.43;2.67;;;17.50;67.80;18.60;100622.00;;;;5088407;28;20206;-51
2022/10/20 05:21:21;;;;;;;4.47;2.70;;;17.50;67.80;18.60;100620.00;;;;5088651;28;20229;-50
2022/10/20 05:23:47;;;;;;;3.87;2.70;;;17.50;67.80;18.60;100611.00;;;;5084939;28;20174;-51
2022/10/20 05:26:17;;;;;;;3.33;2.90;;;17.50;68.70;18.60;100601.00;;;;5077757;28;20187;-51
2022/10/20 05:28:48;;;;;;;3.90;2.83;;;17.50;68.00;18.60;100609.00;;;;5065811;28;20195;-49
2022/10/20 05:31:14;;;;;;;3.10;2.80;;;17.50;68.00;18.60;100617.00;;;;5068125;28;20181;-50
2022/10/20 05:33:44;;;;;;;5.30;2.90;;;17.50;68.00;18.60;100608.00;;;;5068028;28;20179;-49
2022/10/20 05:36:11;;;;;;;3.07;2.77;;;17.50;68.00;18.50;100612.00;;;;5069651;28;20695;-50
2022/10/20 05:38:38;;;;;;;3.40;2.80;;;17.50;68.10;18.50;100595.00;;;;5070233;28;20204;-51
2022/10/20 05:41:17;;;;;;;2.80;2.60;;;17.50;68.10;18.50;100592.00;;;;5071480;28;20212;-50
2022/10/20 05:43:48;;;;;;;4.00;2.70;;;17.50;68.10;18.50;100598.00;;;;5071552;28;20168;-49
2022/10/20 05:46:14;;;;;;;2.93;2.70;;;17.50;68.10;18.50;100599.00;;;;5071159;28;20166;-51
2022/10/20 05:48:40;;;;;;;3.67;2.53;;;17.50;68.20;18.50;100602.00;;;;5073912;28;20868;-50
2022/10/20 05:51:15;;;;;;;3.30;2.90;;;17.40;68.10;18.50;100588.00;;;;5072762;28;20708;-50
2022/10/20 05:53:42;;;;;;;4.83;2.80;;;17.50;68.40;18.50;100578.00;;;;5069220;28;20292;-50
2022/10/20 05:56:10;;;;;;;3.77;2.70;;;17.50;68.40;18.50;100597.00;;;;5068280;28;20283;-49
2022/10/20 05:58:35;;;;;;;3.03;2.60;;;17.50;68.40;18.50;100599.00;;;;5069016;28;20304;-50
2022/10/20 06:01:06;;;;;;;4.00;2.87;;;17.50;68.40;18.50;100596.00;;;;5069643;28;20686;-50
2022/10/20 06:03:32;;;;;;;3.73;2.70;;;17.40;68.30;18.50;100593.00;;;;5069436;28;20177;-49
2022/10/20 06:05:59;;;;;;;3.77;2.60;;;17.40;68.30;18.50;100595.00;;;;5069800;28;20323;-50
2022/10/20 06:08:25;;;;;;;3.00;2.70;;;17.40;68.30;18.50;100586.00;;;;5070070;28;20198;-50
2022/10/20 06:10:50;;;;;;;3.17;2.73;;;17.40;68.30;18.50;100586.00;;;;5070188;28;20184;-51
2022/10/20 06:13:16;;;;;;;2.60;2.40;;;17.40;68.40;18.50;100579.00;;;;5071085;28;20175;-49
2022/10/20 06:15:42;;;;;;;2.53;2.33;;;17.40;68.40;18.50;100583.00;;;;5071211;28;20185;-50
2022/10/20 06:18:07;;;;;;;3.07;2.50;;;17.40;68.40;18.50;100582.00;;;;5070669;28;20190;-49
2022/10/20 06:20:33;;;;;;;4.00;2.70;;;17.40;68.40;18.50;100592.00;;;;5071010;28;20177;-50
2022/10/20 06:22:59;;;;;;;3.10;2.80;;;17.40;68.40;18.50;100583.00;;;;5070757;28;20241;-50
2022/10/20 06:25:25;;;;;;;3.00;2.70;;;17.40;68.40;18.50;100586.00;;;;5071021;28;20600;-49
2022/10/20 06:27:50;;;;;;;2.77;2.57;;;17.40;68.40;18.40;100578.00;;;;5070416;28;20260;-50
2022/10/20 06:30:16;;;;;;;2.60;2.40;;;17.40;68.40;18.50;100577.00;;;;5071002;28;20248;-50
2022/10/20 06:32:42;;;;;;;2.90;2.57;;;17.40;68.40;18.40;100580.00;;;;5070582;28;20176;-49
2022/10/20 06:35:08;;;;;;;5.13;2.80;;;17.40;68.80;18.40;100579.00;;;;5069927;28;20184;-49
2022/10/20 06:37:33;;;;;;;5.37;2.83;;;17.40;69.00;18.40;100592.00;;;;5070264;28;20560;-48
2022/10/20 06:39:59;;;;;;;4.40;2.60;;;17.40;68.90;18.40;100600.00;;;;5070501;28;20219;-50
2022/10/20 06:42:25;;;;;;;2.80;2.60;;;17.40;68.70;18.40;100608.00;;;;5072030;28;20181;-48
2022/10/20 06:44:50;;;;;;;6.43;2.73;;;17.50;68.60;18.40;100617.00;;;;5070770;28;20667;-48
2022/10/20 06:47:16;;;;;;;3.00;2.70;;;17.50;68.80;18.40;100611.00;;;;5070531;28;20184;-48
2022/10/20 06:49:42;;;;;;;5.20;2.80;;;17.50;69.00;18.50;100599.00;;;;5070340;28;20209;-49
2022/10/20 06:52:08;;;;;;;3.60;2.60;;;17.60;69.10;18.50;100602.00;;;;5070321;28;20188;-49
2022/10/20 06:54:33;;;;;;;3.93;2.50;;;17.70;69.00;18.50;100608.00;;;;5069649;28;20178;-48
2022/10/20 06:56:59;;;;;;;5.73;2.60;;;17.80;68.90;18.60;100609.00;;;;5070939;28;20224;-50
2022/10/20 06:59:25;;;;;;;3.60;2.40;;;18.00;68.80;18.70;100616.00;;;;5071584;28;20712;-48
2022/10/20 07:01:51;;;;;;;4.03;2.60;;;18.10;68.60;18.70;100602.00;;;;5072689;28;20628;-49
2022/10/20 07:04:17;;;;;;;3.27;2.47;;;18.20;68.40;18.80;100596.00;;;;5073518;28;20788;-50
2022/10/20 07:06:44;;;;;;;4.80;2.40;;;18.30;68.20;18.90;100603.00;;;;5071302;28;20182;-49
2022/10/20 07:09:17;;;;;;;5.73;2.53;;;18.30;68.20;18.90;100604.00;;;;5025042;28;20208;-49
2022/10/20 07:11:43;;;;;;;4.50;2.40;;;18.40;68.20;18.90;100616.00;;;;5089826;28;20173;-48
2022/10/20 07:14:10;;;;;;;3.40;2.50;;;18.40;68.20;19.00;100617.00;;;;5085360;28;20254;-49
2022/10/20 07:16:36;;;;;;;5.00;2.50;;;18.40;68.40;19.00;100616.00;;;;5087931;28;20858;-49
2022/10/20 07:19:02;;;;;;;6.40;2.60;;;18.40;68.50;19.00;100620.00;;;;5087782;28;20197;-53
2022/10/20 07:21:29;;;;;;;10.27;2.80;;;18.40;68.60;19.00;100620.00;;;;5088582;28;20256;-52
2022/10/20 07:23:55;;;;;;;4.63;2.73;;;18.40;68.80;19.10;100639.00;;;;5087613;28;20177;-52
2022/10/20 07:26:23;;;;;;;9.47;2.47;;;18.40;68.90;19.10;100636.00;;;;5089314;28;20180;-53
2022/10/20 07:28:51;;;;;;;9.33;2.60;;;18.40;68.90;19.10;100622.00;;;;5087815;28;20299;-51
2022/10/20 07:31:29;;;;;;;7.77;2.60;;;18.40;69.00;19.10;100648.00;;;;5088453;28;20660;-52
2022/10/20 07:33:57;;;;;;;6.17;2.63;;;18.40;69.00;19.10;100619.00;;;;5087512;28;20164;-52
2022/10/20 07:36:25;;;;;;;3.60;2.57;;;18.40;69.00;19.10;100630.00;;;;5088929;28;20612;-52
2022/10/20 07:38:52;;;;;;;5.07;2.60;;;18.40;69.00;19.10;100614.00;;;;5087840;28;20189;-52
2022/10/20 07:41:18;;;;;;;3.20;2.50;;;18.40;69.20;19.10;100596.00;;;;5087928;28;20192;-52
2022/10/20 07:43:44;;;;;;;4.07;2.50;;;18.40;69.10;18.90;100582.00;;;;5087694;28;20649;-52
2022/10/20 07:46:10;;;;;;;4.00;2.47;;;18.40;69.10;19.20;100578.00;;;;5089143;28;20241;-54
2022/10/20 07:48:36;;;;;;;4.20;2.77;;;18.40;69.20;19.10;100591.00;;;;5089166;28;20189;-54
2022/10/20 07:51:27;;;;;;;4.80;2.33;;;18.30;69.10;19.10;100578.00;;;;5088492;28;20176;-53
2022/10/20 07:54:01;;;;;;;3.03;2.47;;;18.30;69.10;19.10;100573.00;;;;5086582;28;20168;-52
2022/10/20 07:56:42;;;;;;;4.97;2.70;;;18.30;69.10;19.10;100589.00;;;;5088911;28;20191;-53
2022/10/20 07:59:09;;;;;;;4.90;2.30;;;18.30;69.10;19.10;100591.00;;;;5086447;28;20204;-54
2022/10/20 08:01:34;;;;;;;6.03;2.50;;;18.30;69.30;19.10;100588.00;;;;5087964;28;20256;-51
2022/10/20 08:04:00;;;;;;;6.00;2.43;;;18.40;69.60;19.10;100587.00;;;;5088729;28;20179;-52
2022/10/20 08:06:26;;;;;;;5.13;3.13;;;18.30;69.70;19.00;100597.00;;;;5087782;28;20177;-52
2022/10/20 08:08:52;;;;;;;5.23;3.20;;;18.30;70.10;19.20;100614.00;;;;5036008;28;20200;-53
2022/10/20 08:11:18;;;;;;;4.93;3.30;;;18.40;70.30;19.10;100605.00;;;;5088197;28;20256;-52
2022/10/20 08:13:44;;;;;;;6.07;3.10;;;18.30;70.20;19.10;100597.00;;;;5088444;28;20248;-53
2022/10/20 08:16:11;;;;;;;8.17;3.70;;;18.40;70.50;19.20;100594.00;;;;5088257;28;20196;-53
2022/10/20 08:18:37;;;;;;;8.50;4.20;;;18.40;70.70;19.20;100594.00;;;;5087246;28;20697;-53
2022/10/20 08:21:16;;;;;;;10.73;4.27;;;18.30;70.70;19.20;100581.00;;;;5088756;28;20269;-53
2022/10/20 08:23:43;;;;;;;6.00;4.20;;;18.30;70.50;19.20;100582.00;;;;5088540;28;20196;-53
2022/10/20 08:26:10;;;;;;;6.77;3.83;;;18.30;70.60;19.20;100591.00;;;;5089499;28;20184;-52
2022/10/20 08:28:35;;;;;;;3.97;3.53;;;18.30;70.60;19.20;100587.00;;;;5089367;28;20565;-52
2022/10/20 08:31:05;;;;;;;5.90;3.90;;;18.30;70.50;19.20;100583.00;;;;5088437;28;20165;-52
2022/10/20 08:33:31;;;;;;;8.97;3.97;;;18.40;70.60;19.20;100591.00;;;;5087397;28;20215;-52
2022/10/20 08:36:08;;;;;;;8.47;3.87;;;18.30;70.50;19.20;100588.00;;;;5088297;28;20204;-52
2022/10/20 08:38:34;;;;;;;6.33;3.80;;;18.30;70.50;19.20;100589.00;;;;5087475;28;20258;-52
2022/10/20 08:41:00;;;;;;;6.60;3.90;;;18.30;71.30;19.20;100591.00;;;;5088382;28;20666;-52
2022/10/20 08:43:26;;;;;;;6.97;3.73;;;18.30;70.50;19.20;100593.00;;;;5088562;28;20180;-52
2022/10/20 08:45:52;;;;;;;4.47;3.70;;;18.30;70.50;19.20;100600.00;;;;5089047;28;20181;-52
2022/10/20 08:48:23;;;;;;;6.27;3.60;;;18.30;70.60;19.20;100598.00;;;;5086797;28;20200;-52
2022/10/20 08:50:50;;;;;;;5.17;3.50;;;18.30;70.50;19.20;100583.00;;;;5087096;28;20157;-53
2022/10/20 08:53:18;;;;;;;6.97;3.67;;;18.30;70.30;19.20;100569.00;;;;5086550;28;20178;-53
2022/10/20 08:55:44;;;;;;;5.10;3.60;;;18.30;70.40;19.20;100596.00;;;;5086525;28;20207;-53
2022/10/20 08:58:21;;;;;;;5.43;3.70;;;18.30;70.30;19.20;100586.00;;;;5088189;28;20681;-53
2022/10/20 09:00:47;;;;;;;6.97;4.07;;;18.30;70.30;19.10;100582.00;;;;5086119;28;20161;-51
2022/10/20 09:03:22;;;;;;;5.37;3.50;;;18.30;70.40;19.10;100582.00;;;;5087284;28;20662;-52
2022/10/20 09:06:17;;;;;;;7.03;3.57;;;18.30;70.50;19.20;100579.00;;;;5087991;28;20171;-55
2022/10/20 09:08:43;;;;;;;11.07;3.80;;;18.30;70.60;18.90;100593.00;;;;5015260;28;21952;-51
2022/10/20 09:11:15;;;;;;;8.10;3.50;;;18.20;70.60;19.20;100595.00;;;;5090162;28;20698;-54
2022/10/20 09:13:41;;;;;;;7.57;3.60;;;18.30;70.90;19.10;100606.00;;;;5090675;28;20189;-54
2022/10/20 09:16:28;;;;;;;8.53;3.73;;;18.30;70.90;19.20;100580.00;;;;5092391;28;20211;-54
2022/10/20 09:18:56;;;;;;;9.17;3.47;;;18.30;71.00;19.10;100568.00;;;;5091221;28;20564;-54
2022/10/20 09:21:22;;;;;;;9.40;3.80;;;18.30;71.10;19.20;100570.00;;;;5091254;28;20179;-54
2022/10/20 09:23:53;;;;;;;11.80;3.67;;;18.30;71.30;19.20;100576.00;;;;5092100;28;20236;-53
2022/10/20 09:26:30;;;;;;;13.80;4.00;;;18.30;71.30;19.10;100573.00;;;;5090684;28;20162;-54
2022/10/20 09:29:24;;;;;;;9.80;3.93;;;18.20;71.10;19.10;100575.00;;;;5091656;28;20196;-52
2022/10/20 09:31:52;;;;;;;11.33;3.63;;;18.20;71.10;19.10;100571.00;;;;5091508;28;20192;-52
2022/10/20 09:34:19;;;;;;;8.73;3.80;;;18.20;71.20;19.10;100566.00;;;;5091289;28;20177;-53
2022/10/20 09:36:45;;;;;;;7.67;3.40;;;18.20;71.10;19.10;100574.00;;;;5091562;28;20277;-53
2022/10/20 09:39:26;;;;;;;5.37;3.50;;;18.20;71.30;19.10;100574.00;;;;5091099;28;20196;-52
2022/10/20 09:42:04;;;;;;;10.73;3.70;;;18.20;71.70;19.10;100564.00;;;;5093631;28;20157;-51
2022/10/20 09:44:32;;;;;;;6.57;3.80;;;18.20;71.80;19.10;100571.00;;;;5075951;28;20252;-52
2022/10/20 09:46:58;;;;;;;5.63;3.43;;;18.30;71.90;19.10;100559.00;;;;5094749;28;20184;-53
2022/10/20 09:49:36;;;;;;;11.17;3.40;;;18.30;71.90;19.10;100552.00;;;;5095752;28;20308;-51
2022/10/20 09:52:03;;;;;;;8.53;3.50;;;18.30;72.00;19.10;100540.00;;;;5098322;28;20208;-51
2022/10/20 09:54:29;;;;;;;5.67;3.47;;;18.30;72.00;19.10;100558.00;;;;5092170;28;20184;-52
2022/10/20 09:57:04;;;;;;;8.70;3.40;;;18.30;72.00;19.10;100531.00;;;;5087086;28;20731;-52
2022/10/20 09:59:36;;;;;;;7.03;3.50;;;18.30;72.10;19.10;100556.00;;;;5091487;28;20191;-51
2022/10/20 10:02:25;;;;;;;6.77;3.50;;;18.30;72.30;19.20;100571.00;;;;5089559;28;20306;-51
2022/10/20 10:04:52;;;;;;;6.03;3.27;;;18.30;72.20;19.20;100579.00;;;;5071203;28;20169;-51
2022/10/20 10:07:21;;;;;;;5.50;3.50;;;18.30;72.20;19.10;100582.00;;;;5077630;28;20185;-54
2022/10/20 10:10:00;;;;;;;6.20;3.37;;;18.30;72.20;19.20;100563.00;;;;5035980;28;20605;-52
2022/10/20 10:12:27;;;;;;;7.23;3.63;;;18.30;72.30;19.20;100562.00;;;;5070816;28;20168;-52
2022/10/20 10:15:01;;;;;;;6.50;3.33;;;18.40;72.50;19.20;100571.00;;;;5069690;28;20186;-53
2022/10/20 10:17:38;;;;;;;7.73;3.30;;;18.30;72.50;19.20;100578.00;;;;5071026;28;20664;-53
2022/10/20 10:20:36;;;;;;;9.33;3.20;;;18.30;72.20;19.20;100590.00;;;;5070596;28;20163;-52
2022/10/20 10:23:24;;;;;;;7.43;3.60;;;18.40;72.10;19.20;100583.00;;;;5057005;28;20170;-52
2022/10/20 10:25:50;;;;;;;6.73;3.50;;;18.30;71.80;19.20;100583.00;;;;5070854;28;20243;-52
2022/10/20 10:28:25;;;;;;;8.07;3.53;;;18.30;71.90;19.20;100590.00;;;;5070607;28;20696;-52
2022/10/20 10:31:15;;;;;;;8.07;3.63;;;18.30;71.90;19.20;100588.00;;;;5079894;28;20602;-52
2022/10/20 10:33:41;;;;;;;8.77;3.53;;;18.30;71.90;19.20;100599.00;;;;5089785;28;20187;-53
2022/10/20 10:36:26;;;;;;;7.53;3.23;;;18.30;71.90;19.20;100591.00;;;;5089494;28;20193;-53
2022/10/20 10:38:53;;;;;;;4.20;3.47;;;18.20;71.70;19.20;100583.00;;;;5089567;28;20853;-52
2022/10/20 10:41:55;;;;;;;10.27;3.90;;;18.20;71.70;19.20;100579.00;;;;5090564;28;20221;-52
2022/10/20 10:45:03;;;;;;;5.23;3.33;;;18.20;71.60;19.20;100563.00;;;;5088920;28;20650;-53
2022/10/20 10:48:07;;;;;;;6.37;3.70;;;18.20;71.50;19.10;100523.00;;;;5075756;28;20274;-53
2022/10/20 10:51:10;;;;;;;4.83;3.70;;;18.20;71.50;19.10;100549.00;;;;5045037;28;20204;-52
2022/10/20 10:54:20;;;;;;;8.20;3.57;;;18.20;71.70;19.10;100548.00;;;;5048312;28;20189;-55
2022/10/20 10:57:44;;;;;;;8.00;3.13;;;18.20;71.70;19.10;100537.00;;;;5015592;28;20250;-52
2022/10/20 11:00:19;;;;;;;5.70;3.20;;;18.30;71.90;19.20;100527.00;;;;5061324;28;20180;-51
2022/10/20 11:02:59;;;;;;;7.00;3.10;;;18.40;71.80;19.20;100520.00;;;;5089091;28;20244;-52